sensor_id;sensor_type;location;lat;lon;timestamp;temperature;humidity
65050;DHT22;52090;51.224;-2.328;2022-12-18T00:00:57;0.30;96.40
65050;DHT22;52090;51.224;-2.328;2022-12-18T00:04:39;0.30;96.40
65050;DHT22;52090;51.224;-2.328;2022-12-18T00:08:20;0.30;96.30
65050;DHT22;52090;51.224;-2.328;2022-12-18T00:12:02;0.20;96.30
65050;DHT22;52090;51.224;-2.328;2022-12-18T00:16:04;0.30;96.40
65050;DHT22;52090;51.224;-2.328;2022-12-18T00:19:47;0.30;96.70
65050;DHT22;52090;51.224;-2.328;2022-12-18T00:23:29;0.30;96.40
65050;DHT22;52090;51.224;-2.328;2022-12-18T00:27:11;0.30;96.50
65050;DHT22;52090;51.224;-2.328;2022-12-18T00:31:07;0.30;96.60
65050;DHT22;52090;51.224;-2.328;2022-12-18T00:34:49;0.30;96.80
65050;DHT22;52090;51.224;-2.328;2022-12-18T00:38:31;0.40;96.70
65050;DHT22;52090;51.224;-2.328;2022-12-18T00:42:13;0.40;96.70
65050;DHT22;52090;51.224;-2.328;2022-12-18T00:46:13;0.40;96.60
65050;DHT22;52090;51.224;-2.328;2022-12-18T00:49:55;0.40;96.60
65050;DHT22;52090;51.224;-2.328;2022-12-18T00:53:36;0.40;96.70
65050;DHT22;52090;51.224;-2.328;2022-12-18T00:57:19;0.40;96.70
65050;DHT22;52090;51.224;-2.328;2022-12-18T01:01:01;0.40;96.80
65050;DHT22;52090;51.224;-2.328;2022-12-18T01:04:42;0.50;96.90
65050;DHT22;52090;51.224;-2.328;2022-12-18T01:08:24;0.50;96.90
65050;DHT22;52090;51.224;-2.328;2022-12-18T01:12:06;0.50;97.10
65050;DHT22;52090;51.224;-2.328;2022-12-18T01:15:49;0.60;97.20
65050;DHT22;52090;51.224;-2.328;2022-12-18T01:19:31;0.60;97.20
65050;DHT22;52090;51.224;-2.328;2022-12-18T01:23:13;0.60;97.20
65050;DHT22;52090;51.224;-2.328;2022-12-18T01:26:55;0.70;97.20
65050;DHT22;52090;51.224;-2.328;2022-12-18T01:30:38;0.60;97.20
65050;DHT22;52090;51.224;-2.328;2022-12-18T01:34:20;0.70;97.00
65050;DHT22;52090;51.224;-2.328;2022-12-18T01:38:01;0.70;97.20
65050;DHT22;52090;51.224;-2.328;2022-12-18T01:41:44;0.70;97.20
65050;DHT22;52090;51.224;-2.328;2022-12-18T01:45:44;0.70;97.20
65050;DHT22;52090;51.224;-2.328;2022-12-18T01:49:26;0.70;97.20
65050;DHT22;52090;51.224;-2.328;2022-12-18T01:53:20;0.70;97.30
65050;DHT22;52090;51.224;-2.328;2022-12-18T01:57:02;0.70;97.20
65050;DHT22;52090;51.224;-2.328;2022-12-18T02:00:44;0.70;97.30
65050;DHT22;52090;51.224;-2.328;2022-12-18T02:04:27;0.80;97.40
65050;DHT22;52090;51.224;-2.328;2022-12-18T02:12:09;0.80;97.40
65050;DHT22;52090;51.224;-2.328;2022-12-18T02:16:08;0.80;97.50
65050;DHT22;52090;51.224;-2.328;2022-12-18T02:27:45;0.80;97.30
65050;DHT22;52090;51.224;-2.328;2022-12-18T02:31:31;0.80;97.50
65050;DHT22;52090;51.224;-2.328;2022-12-18T02:35:20;0.80;97.50
65050;DHT22;52090;51.224;-2.328;2022-12-18T02:39:05;0.80;97.50
65050;DHT22;52090;51.224;-2.328;2022-12-18T02:42:49;0.90;97.60
65050;DHT22;52090;51.224;-2.328;2022-12-18T02:46:34;0.90;97.70
65050;DHT22;52090;51.224;-2.328;2022-12-18T02:50:35;0.90;97.70
65050;DHT22;52090;51.224;-2.328;2022-12-18T02:58:34;1.00;97.80
65050;DHT22;52090;51.224;-2.328;2022-12-18T03:02:33;1.00;97.70
65050;DHT22;52090;51.224;-2.328;2022-12-18T03:06:46;1.00;97.80
65050;DHT22;52090;51.224;-2.328;2022-12-18T03:10:31;1.00;97.60
65050;DHT22;52090;51.224;-2.328;2022-12-18T03:14:16;1.00;97.80
65050;DHT22;52090;51.224;-2.328;2022-12-18T03:18:07;1.00;97.90
65050;DHT22;52090;51.224;-2.328;2022-12-18T03:21:54;1.10;98.00
65050;DHT22;52090;51.224;-2.328;2022-12-18T03:25:40;1.10;98.20
65050;DHT22;52090;51.224;-2.328;2022-12-18T03:29:40;1.20;98.30
65050;DHT22;52090;51.224;-2.328;2022-12-18T03:37:37;1.30;98.40
65050;DHT22;52090;51.224;-2.328;2022-12-18T03:41:32;1.30;98.40
65050;DHT22;52090;51.224;-2.328;2022-12-18T03:45:25;1.40;98.40
65050;DHT22;52090;51.224;-2.328;2022-12-18T03:49:10;1.40;98.40
65050;DHT22;52090;51.224;-2.328;2022-12-18T03:53:02;1.40;98.10
65050;DHT22;52090;51.224;-2.328;2022-12-18T03:56:56;1.50;98.50
65050;DHT22;52090;51.224;-2.328;2022-12-18T04:00:40;1.40;98.80
65050;DHT22;52090;51.224;-2.328;2022-12-18T04:04:23;1.50;98.70
65050;DHT22;52090;51.224;-2.328;2022-12-18T04:08:07;1.50;98.70
65050;DHT22;52090;51.224;-2.328;2022-12-18T04:11:48;1.50;98.80
65050;DHT22;52090;51.224;-2.328;2022-12-18T04:15:33;1.60;98.90
65050;DHT22;52090;51.224;-2.328;2022-12-18T04:19:16;1.60;98.90
65050;DHT22;52090;51.224;-2.328;2022-12-18T04:22:58;1.60;98.90
65050;DHT22;52090;51.224;-2.328;2022-12-18T04:26:40;1.70;99.00
65050;DHT22;52090;51.224;-2.328;2022-12-18T04:30:21;1.70;99.00
65050;DHT22;52090;51.224;-2.328;2022-12-18T04:34:03;1.70;99.10
65050;DHT22;52090;51.224;-2.328;2022-12-18T04:37:45;1.80;99.10
65050;DHT22;52090;51.224;-2.328;2022-12-18T04:41:27;1.80;99.30
65050;DHT22;52090;51.224;-2.328;2022-12-18T04:45:09;1.90;99.30
65050;DHT22;52090;51.224;-2.328;2022-12-18T04:48:51;1.90;99.30
65050;DHT22;52090;51.224;-2.328;2022-12-18T04:52:32;1.90;99.30
65050;DHT22;52090;51.224;-2.328;2022-12-18T04:56:15;2.00;99.30
65050;DHT22;52090;51.224;-2.328;2022-12-18T04:59:57;2.00;99.30
65050;DHT22;52090;51.224;-2.328;2022-12-18T05:03:39;2.10;99.70
65050;DHT22;52090;51.224;-2.328;2022-12-18T05:07:21;2.10;99.40
65050;DHT22;52090;51.224;-2.328;2022-12-18T05:11:09;2.10;99.40
65050;DHT22;52090;51.224;-2.328;2022-12-18T05:14:51;2.10;99.40
65050;DHT22;52090;51.224;-2.328;2022-12-18T05:18:34;2.20;99.50
65050;DHT22;52090;51.224;-2.328;2022-12-18T05:22:16;2.20;99.40
65050;DHT22;52090;51.224;-2.328;2022-12-18T05:26:00;2.20;99.50
65050;DHT22;52090;51.224;-2.328;2022-12-18T05:29:42;2.30;99.50
65050;DHT22;52090;51.224;-2.328;2022-12-18T05:33:25;2.30;99.50
65050;DHT22;52090;51.224;-2.328;2022-12-18T05:37:07;2.30;99.40
65050;DHT22;52090;51.224;-2.328;2022-12-18T05:40:50;2.30;99.50
65050;DHT22;52090;51.224;-2.328;2022-12-18T05:44:32;2.40;99.50
65050;DHT22;52090;51.224;-2.328;2022-12-18T05:48:14;2.40;99.50
65050;DHT22;52090;51.224;-2.328;2022-12-18T05:51:56;2.40;99.70
65050;DHT22;52090;51.224;-2.328;2022-12-18T05:55:39;2.50;99.90
65050;DHT22;52090;51.224;-2.328;2022-12-18T05:59:21;2.50;99.90
65050;DHT22;52090;51.224;-2.328;2022-12-18T06:03:02;2.60;99.80
65050;DHT22;52090;51.224;-2.328;2022-12-18T06:06:44;2.60;99.90
65050;DHT22;52090;51.224;-2.328;2022-12-18T06:10:26;2.60;99.90
65050;DHT22;52090;51.224;-2.328;2022-12-18T06:14:09;2.70;99.90
65050;DHT22;52090;51.224;-2.328;2022-12-18T06:17:51;2.70;99.90
65050;DHT22;52090;51.224;-2.328;2022-12-18T06:21:33;2.70;99.80
65050;DHT22;52090;51.224;-2.328;2022-12-18T06:25:15;2.80;99.90
65050;DHT22;52090;51.224;-2.328;2022-12-18T06:28:57;2.80;99.90
65050;DHT22;52090;51.224;-2.328;2022-12-18T06:32:39;2.90;99.90
65050;DHT22;52090;51.224;-2.328;2022-12-18T06:36:21;2.90;99.90
65050;DHT22;52090;51.224;-2.328;2022-12-18T06:40:03;2.90;99.90
65050;DHT22;52090;51.224;-2.328;2022-12-18T06:43:45;2.90;99.90
65050;DHT22;52090;51.224;-2.328;2022-12-18T06:47:27;2.90;99.90
65050;DHT22;52090;51.224;-2.328;2022-12-18T06:51:09;3.00;99.90
65050;DHT22;52090;51.224;-2.328;2022-12-18T06:54:51;3.00;99.90
65050;DHT22;52090;51.224;-2.328;2022-12-18T06:58:33;3.00;99.90
65050;DHT22;52090;51.224;-2.328;2022-12-18T07:02:15;3.10;99.90
65050;DHT22;52090;51.224;-2.328;2022-12-18T07:05:56;3.10;99.90
65050;DHT22;52090;51.224;-2.328;2022-12-18T07:09:38;3.10;99.90
65050;DHT22;52090;51.224;-2.328;2022-12-18T07:13:20;3.10;99.90
65050;DHT22;52090;51.224;-2.328;2022-12-18T07:17:02;3.00;99.90
65050;DHT22;52090;51.224;-2.328;2022-12-18T07:20:43;3.10;99.90
65050;DHT22;52090;51.224;-2.328;2022-12-18T07:24:26;3.00;99.90
65050;DHT22;52090;51.224;-2.328;2022-12-18T07:28:08;3.00;99.90
65050;DHT22;52090;51.224;-2.328;2022-12-18T07:31:57;3.00;99.90
65050;DHT22;52090;51.224;-2.328;2022-12-18T07:35:39;3.10;99.90
65050;DHT22;52090;51.224;-2.328;2022-12-18T07:39:21;3.10;99.90
65050;DHT22;52090;51.224;-2.328;2022-12-18T07:43:02;3.10;99.90
65050;DHT22;52090;51.224;-2.328;2022-12-18T07:46:44;3.10;99.90
65050;DHT22;52090;51.224;-2.328;2022-12-18T07:50:26;3.10;99.90
65050;DHT22;52090;51.224;-2.328;2022-12-18T07:54:08;3.10;99.90
65050;DHT22;52090;51.224;-2.328;2022-12-18T07:57:50;3.10;99.90
65050;DHT22;52090;51.224;-2.328;2022-12-18T08:01:36;3.10;99.90
65050;DHT22;52090;51.224;-2.328;2022-12-18T08:05:19;3.10;99.90
65050;DHT22;52090;51.224;-2.328;2022-12-18T08:09:02;3.10;99.90
65050;DHT22;52090;51.224;-2.328;2022-12-18T08:12:44;3.10;99.90
65050;DHT22;52090;51.224;-2.328;2022-12-18T08:16:26;3.20;99.90
65050;DHT22;52090;51.224;-2.328;2022-12-18T08:20:09;3.20;99.90
65050;DHT22;52090;51.224;-2.328;2022-12-18T08:23:52;3.20;99.90
65050;DHT22;52090;51.224;-2.328;2022-12-18T08:27:34;3.20;99.90
65050;DHT22;52090;51.224;-2.328;2022-12-18T08:31:16;3.20;99.80
65050;DHT22;52090;51.224;-2.328;2022-12-18T08:34:57;3.20;99.80
65050;DHT22;52090;51.224;-2.328;2022-12-18T08:38:39;3.20;99.90
65050;DHT22;52090;51.224;-2.328;2022-12-18T08:42:22;3.20;99.90
65050;DHT22;52090;51.224;-2.328;2022-12-18T08:46:25;3.20;99.80
65050;DHT22;52090;51.224;-2.328;2022-12-18T08:50:09;3.20;99.90
65050;DHT22;52090;51.224;-2.328;2022-12-18T08:53:52;3.20;99.90
65050;DHT22;52090;51.224;-2.328;2022-12-18T08:57:34;3.20;99.90
65050;DHT22;52090;51.224;-2.328;2022-12-18T09:01:16;3.20;99.90
65050;DHT22;52090;51.224;-2.328;2022-12-18T09:04:57;3.20;99.90
65050;DHT22;52090;51.224;-2.328;2022-12-18T09:08:39;3.20;99.90
65050;DHT22;52090;51.224;-2.328;2022-12-18T09:12:22;3.20;99.90
65050;DHT22;52090;51.224;-2.328;2022-12-18T09:16:04;3.20;99.90
65050;DHT22;52090;51.224;-2.328;2022-12-18T09:19:45;3.20;99.90
65050;DHT22;52090;51.224;-2.328;2022-12-18T09:23:27;3.20;99.90
65050;DHT22;52090;51.224;-2.328;2022-12-18T09:27:09;3.20;99.90
65050;DHT22;52090;51.224;-2.328;2022-12-18T09:30:51;3.20;99.90
65050;DHT22;52090;51.224;-2.328;2022-12-18T09:34:33;3.30;99.90
65050;DHT22;52090;51.224;-2.328;2022-12-18T09:38:16;3.30;99.90
65050;DHT22;52090;51.224;-2.328;2022-12-18T09:41:59;3.30;99.90
65050;DHT22;52090;51.224;-2.328;2022-12-18T09:45:46;3.30;99.90
65050;DHT22;52090;51.224;-2.328;2022-12-18T09:49:30;3.40;99.90
65050;DHT22;52090;51.224;-2.328;2022-12-18T09:53:19;3.40;99.90
65050;DHT22;52090;51.224;-2.328;2022-12-18T09:57:03;3.40;99.90
65050;DHT22;52090;51.224;-2.328;2022-12-18T10:00:45;3.40;99.90
65050;DHT22;52090;51.224;-2.328;2022-12-18T10:04:29;3.40;99.90
65050;DHT22;52090;51.224;-2.328;2022-12-18T10:20:22;3.50;99.90
65050;DHT22;52090;51.224;-2.328;2022-12-18T10:28:30;3.60;99.90
65050;DHT22;52090;51.224;-2.328;2022-12-18T10:32:18;3.70;99.90
65050;DHT22;52090;51.224;-2.328;2022-12-18T10:36:00;3.70;99.90
65050;DHT22;52090;51.224;-2.328;2022-12-18T10:39:42;3.70;99.90
65050;DHT22;52090;51.224;-2.328;2022-12-18T10:43:27;3.70;99.90
65050;DHT22;52090;51.224;-2.328;2022-12-18T10:47:14;3.80;99.90
65050;DHT22;52090;51.224;-2.328;2022-12-18T10:50:56;3.80;99.90
65050;DHT22;52090;51.224;-2.328;2022-12-18T10:54:59;3.80;99.90
65050;DHT22;52090;51.224;-2.328;2022-12-18T10:58:59;3.90;99.90
65050;DHT22;52090;51.224;-2.328;2022-12-18T11:02:40;3.90;99.90
65050;DHT22;52090;51.224;-2.328;2022-12-18T11:06:24;4.00;99.90
65050;DHT22;52090;51.224;-2.328;2022-12-18T11:10:14;4.00;99.90
65050;DHT22;52090;51.224;-2.328;2022-12-18T11:14:12;4.00;99.90
65050;DHT22;52090;51.224;-2.328;2022-12-18T11:17:56;4.10;99.90
65050;DHT22;52090;51.224;-2.328;2022-12-18T11:21:42;4.10;99.90
65050;DHT22;52090;51.224;-2.328;2022-12-18T11:25:24;4.20;99.90
65050;DHT22;52090;51.224;-2.328;2022-12-18T11:29:19;4.20;99.90
65050;DHT22;52090;51.224;-2.328;2022-12-18T11:36:52;4.30;99.90
65050;DHT22;52090;51.224;-2.328;2022-12-18T11:40:40;4.30;99.90
65050;DHT22;52090;51.224;-2.328;2022-12-18T11:44:28;4.30;99.90
65050;DHT22;52090;51.224;-2.328;2022-12-18T12:07:44;4.60;99.90
65050;DHT22;52090;51.224;-2.328;2022-12-18T12:19:42;4.70;99.90
65050;DHT22;52090;51.224;-2.328;2022-12-18T12:32:35;4.90;99.90
65050;DHT22;52090;51.224;-2.328;2022-12-18T12:41:04;5.10;99.90
65050;DHT22;52090;51.224;-2.328;2022-12-18T12:44:51;5.10;99.90
65050;DHT22;52090;51.224;-2.328;2022-12-18T12:48:46;5.20;99.90
65050;DHT22;52090;51.224;-2.328;2022-12-18T12:52:39;5.20;99.90
65050;DHT22;52090;51.224;-2.328;2022-12-18T12:56:26;5.30;99.90
65050;DHT22;52090;51.224;-2.328;2022-12-18T13:00:12;5.30;99.90
65050;DHT22;52090;51.224;-2.328;2022-12-18T13:07:41;5.40;99.90
65050;DHT22;52090;51.224;-2.328;2022-12-18T13:11:46;5.40;99.90
65050;DHT22;52090;51.224;-2.328;2022-12-18T13:16:07;5.50;99.90
65050;DHT22;52090;51.224;-2.328;2022-12-18T13:20:08;5.60;99.90
65050;DHT22;52090;51.224;-2.328;2022-12-18T13:23:51;5.70;99.90
65050;DHT22;52090;51.224;-2.328;2022-12-18T13:27:55;5.70;99.90
65050;DHT22;52090;51.224;-2.328;2022-12-18T13:47:05;6.30;99.90
65050;DHT22;52090;51.224;-2.328;2022-12-18T13:51:11;6.40;99.90
65050;DHT22;52090;51.224;-2.328;2022-12-18T13:54:59;6.50;99.90
65050;DHT22;52090;51.224;-2.328;2022-12-18T13:58:42;6.70;99.90
65050;DHT22;52090;51.224;-2.328;2022-12-18T14:02:28;6.80;99.90
65050;DHT22;52090;51.224;-2.328;2022-12-18T14:06:13;6.90;99.90
65050;DHT22;52090;51.224;-2.328;2022-12-18T14:09:57;7.00;99.90
65050;DHT22;52090;51.224;-2.328;2022-12-18T14:13:59;7.00;99.90
65050;DHT22;52090;51.224;-2.328;2022-12-18T14:17:42;7.10;99.90
65050;DHT22;52090;51.224;-2.328;2022-12-18T14:21:28;7.10;99.90
65050;DHT22;52090;51.224;-2.328;2022-12-18T14:25:24;7.20;99.90
65050;DHT22;52090;51.224;-2.328;2022-12-18T14:29:34;7.30;99.90
65050;DHT22;52090;51.224;-2.328;2022-12-18T14:33:21;7.30;99.90
65050;DHT22;52090;51.224;-2.328;2022-12-18T14:37:04;7.40;99.90
65050;DHT22;52090;51.224;-2.328;2022-12-18T14:40:46;7.50;99.90
65050;DHT22;52090;51.224;-2.328;2022-12-18T14:44:28;7.50;99.90
65050;DHT22;52090;51.224;-2.328;2022-12-18T14:48:39;7.60;99.90
65050;DHT22;52090;51.224;-2.328;2022-12-18T14:52:28;7.70;99.90
65050;DHT22;52090;51.224;-2.328;2022-12-18T14:56:15;7.70;99.90
65050;DHT22;52090;51.224;-2.328;2022-12-18T15:00:06;7.80;99.90
65050;DHT22;52090;51.224;-2.328;2022-12-18T15:03:49;7.80;99.90
65050;DHT22;52090;51.224;-2.328;2022-12-18T15:07:48;7.90;99.90
65050;DHT22;52090;51.224;-2.328;2022-12-18T15:11:45;7.90;99.90
65050;DHT22;52090;51.224;-2.328;2022-12-18T15:19:19;8.00;99.90
65050;DHT22;52090;51.224;-2.328;2022-12-18T15:23:01;8.00;99.90
65050;DHT22;52090;51.224;-2.328;2022-12-18T15:26:43;8.00;99.90
65050;DHT22;52090;51.224;-2.328;2022-12-18T15:30:26;8.00;99.90
65050;DHT22;52090;51.224;-2.328;2022-12-18T15:34:20;8.10;99.90
65050;DHT22;52090;51.224;-2.328;2022-12-18T15:38:02;8.10;99.90
65050;DHT22;52090;51.224;-2.328;2022-12-18T15:41:44;8.20;99.90
65050;DHT22;52090;51.224;-2.328;2022-12-18T15:45:46;8.20;99.90
65050;DHT22;52090;51.224;-2.328;2022-12-18T15:49:28;8.20;99.90
65050;DHT22;52090;51.224;-2.328;2022-12-18T15:53:10;8.30;99.90
65050;DHT22;52090;51.224;-2.328;2022-12-18T15:56:51;8.30;99.90
65050;DHT22;52090;51.224;-2.328;2022-12-18T16:00:52;8.30;99.90
65050;DHT22;52090;51.224;-2.328;2022-12-18T16:04:34;8.30;99.90
65050;DHT22;52090;51.224;-2.328;2022-12-18T16:08:15;8.30;99.90
65050;DHT22;52090;51.224;-2.328;2022-12-18T16:11:57;8.40;99.90
65050;DHT22;52090;51.224;-2.328;2022-12-18T16:15:42;8.40;99.90
65050;DHT22;52090;51.224;-2.328;2022-12-18T16:19:24;8.40;99.90
65050;DHT22;52090;51.224;-2.328;2022-12-18T16:23:06;8.50;99.90
65050;DHT22;52090;51.224;-2.328;2022-12-18T16:26:49;8.50;99.90
65050;DHT22;52090;51.224;-2.328;2022-12-18T16:30:32;8.50;99.90
65050;DHT22;52090;51.224;-2.328;2022-12-18T16:34:25;8.50;99.90
65050;DHT22;52090;51.224;-2.328;2022-12-18T16:38:10;8.60;99.90
65050;DHT22;52090;51.224;-2.328;2022-12-18T16:41:52;8.60;99.90
65050;DHT22;52090;51.224;-2.328;2022-12-18T16:45:34;8.60;99.90
65050;DHT22;52090;51.224;-2.328;2022-12-18T16:49:18;8.60;99.90
65050;DHT22;52090;51.224;-2.328;2022-12-18T16:52:59;8.60;99.90
65050;DHT22;52090;51.224;-2.328;2022-12-18T16:56:41;8.60;99.90
65050;DHT22;52090;51.224;-2.328;2022-12-18T17:00:23;8.70;99.90
65050;DHT22;52090;51.224;-2.328;2022-12-18T17:04:05;8.70;99.90
65050;DHT22;52090;51.224;-2.328;2022-12-18T17:07:47;8.70;99.90
65050;DHT22;52090;51.224;-2.328;2022-12-18T17:11:31;8.70;99.90
65050;DHT22;52090;51.224;-2.328;2022-12-18T17:15:13;8.70;99.90
65050;DHT22;52090;51.224;-2.328;2022-12-18T17:18:55;8.80;99.90
65050;DHT22;52090;51.224;-2.328;2022-12-18T17:22:37;8.80;99.90
65050;DHT22;52090;51.224;-2.328;2022-12-18T17:26:18;8.80;99.90
65050;DHT22;52090;51.224;-2.328;2022-12-18T17:30:01;8.80;99.90
65050;DHT22;52090;51.224;-2.328;2022-12-18T17:33:43;8.80;99.90
65050;DHT22;52090;51.224;-2.328;2022-12-18T17:37:25;8.90;99.90
65050;DHT22;52090;51.224;-2.328;2022-12-18T17:41:08;8.90;99.90
65050;DHT22;52090;51.224;-2.328;2022-12-18T17:44:50;9.00;99.90
65050;DHT22;52090;51.224;-2.328;2022-12-18T17:48:32;9.00;99.90
65050;DHT22;52090;51.224;-2.328;2022-12-18T17:52:14;9.00;99.90
65050;DHT22;52090;51.224;-2.328;2022-12-18T17:55:57;9.10;99.90
65050;DHT22;52090;51.224;-2.328;2022-12-18T17:59:41;9.10;99.90
65050;DHT22;52090;51.224;-2.328;2022-12-18T18:03:23;9.10;99.90
65050;DHT22;52090;51.224;-2.328;2022-12-18T18:07:05;9.10;99.90
65050;DHT22;52090;51.224;-2.328;2022-12-18T18:10:47;9.10;99.90
65050;DHT22;52090;51.224;-2.328;2022-12-18T18:14:29;9.20;99.90
65050;DHT22;52090;51.224;-2.328;2022-12-18T18:18:11;9.20;99.90
65050;DHT22;52090;51.224;-2.328;2022-12-18T18:21:55;9.20;99.90
65050;DHT22;52090;51.224;-2.328;2022-12-18T18:25:37;9.30;99.90
65050;DHT22;52090;51.224;-2.328;2022-12-18T18:29:23;9.30;99.90
65050;DHT22;52090;51.224;-2.328;2022-12-18T18:33:07;9.40;99.90
65050;DHT22;52090;51.224;-2.328;2022-12-18T18:36:53;9.40;99.90
65050;DHT22;52090;51.224;-2.328;2022-12-18T18:40:37;9.40;99.90
65050;DHT22;52090;51.224;-2.328;2022-12-18T18:44:20;9.50;99.90
65050;DHT22;52090;51.224;-2.328;2022-12-18T18:48:06;9.50;99.90
65050;DHT22;52090;51.224;-2.328;2022-12-18T18:51:49;9.50;99.90
65050;DHT22;52090;51.224;-2.328;2022-12-18T18:55:32;9.50;99.90
65050;DHT22;52090;51.224;-2.328;2022-12-18T18:59:14;9.50;99.90
65050;DHT22;52090;51.224;-2.328;2022-12-18T19:02:56;9.60;99.90
65050;DHT22;52090;51.224;-2.328;2022-12-18T19:06:41;9.60;99.90
65050;DHT22;52090;51.224;-2.328;2022-12-18T19:10:24;9.70;99.90
65050;DHT22;52090;51.224;-2.328;2022-12-18T19:14:09;9.70;99.90
65050;DHT22;52090;51.224;-2.328;2022-12-18T19:17:51;9.70;99.90
65050;DHT22;52090;51.224;-2.328;2022-12-18T19:21:34;9.80;99.90
65050;DHT22;52090;51.224;-2.328;2022-12-18T19:25:16;9.80;99.90
65050;DHT22;52090;51.224;-2.328;2022-12-18T19:29:08;9.80;99.90
65050;DHT22;52090;51.224;-2.328;2022-12-18T19:32:49;9.80;99.90
65050;DHT22;52090;51.224;-2.328;2022-12-18T19:36:33;9.90;99.90
65050;DHT22;52090;51.224;-2.328;2022-12-18T19:40:15;9.90;99.90
65050;DHT22;52090;51.224;-2.328;2022-12-18T19:43:56;10.00;99.90
65050;DHT22;52090;51.224;-2.328;2022-12-18T19:47:38;10.10;99.90
65050;DHT22;52090;51.224;-2.328;2022-12-18T19:51:22;10.10;99.90
65050;DHT22;52090;51.224;-2.328;2022-12-18T19:55:04;10.10;99.90
65050;DHT22;52090;51.224;-2.328;2022-12-18T19:58:46;10.20;99.90
65050;DHT22;52090;51.224;-2.328;2022-12-18T20:02:28;10.20;99.90
65050;DHT22;52090;51.224;-2.328;2022-12-18T20:06:35;10.20;99.90
65050;DHT22;52090;51.224;-2.328;2022-12-18T20:10:15;10.20;99.90
65050;DHT22;52090;51.224;-2.328;2022-12-18T20:13:59;10.20;99.90
65050;DHT22;52090;51.224;-2.328;2022-12-18T20:17:41;10.30;99.90
65050;DHT22;52090;51.224;-2.328;2022-12-18T20:21:23;10.30;99.90
65050;DHT22;52090;51.224;-2.328;2022-12-18T20:25:05;10.30;99.90
65050;DHT22;52090;51.224;-2.328;2022-12-18T20:28:47;10.40;99.90
65050;DHT22;52090;51.224;-2.328;2022-12-18T20:32:30;10.40;99.90
65050;DHT22;52090;51.224;-2.328;2022-12-18T20:36:19;10.50;99.90
65050;DHT22;52090;51.224;-2.328;2022-12-18T20:40:04;10.50;99.90
65050;DHT22;52090;51.224;-2.328;2022-12-18T20:43:47;10.50;99.90
65050;DHT22;52090;51.224;-2.328;2022-12-18T20:47:28;10.60;99.90
65050;DHT22;52090;51.224;-2.328;2022-12-18T20:51:13;10.60;99.90
65050;DHT22;52090;51.224;-2.328;2022-12-18T20:54:55;10.60;99.90
65050;DHT22;52090;51.224;-2.328;2022-12-18T20:58:38;10.70;99.90
65050;DHT22;52090;51.224;-2.328;2022-12-18T21:02:21;10.70;99.90
65050;DHT22;52090;51.224;-2.328;2022-12-18T21:06:06;10.70;99.90
65050;DHT22;52090;51.224;-2.328;2022-12-18T21:09:48;10.70;99.90
65050;DHT22;52090;51.224;-2.328;2022-12-18T21:13:31;10.80;99.90
65050;DHT22;52090;51.224;-2.328;2022-12-18T21:17:16;10.80;99.90
65050;DHT22;52090;51.224;-2.328;2022-12-18T21:20:58;10.80;99.90
65050;DHT22;52090;51.224;-2.328;2022-12-18T21:24:40;10.90;99.90
65050;DHT22;52090;51.224;-2.328;2022-12-18T21:28:23;10.90;99.90
65050;DHT22;52090;51.224;-2.328;2022-12-18T21:32:05;10.90;99.90
65050;DHT22;52090;51.224;-2.328;2022-12-18T21:35:55;11.00;99.90
65050;DHT22;52090;51.224;-2.328;2022-12-18T21:39:39;11.00;99.90
65050;DHT22;52090;51.224;-2.328;2022-12-18T21:43:21;11.00;99.90
65050;DHT22;52090;51.224;-2.328;2022-12-18T21:47:22;11.10;99.90
65050;DHT22;52090;51.224;-2.328;2022-12-18T21:51:04;11.10;99.90
65050;DHT22;52090;51.224;-2.328;2022-12-18T21:54:48;11.20;99.90
65050;DHT22;52090;51.224;-2.328;2022-12-18T21:58:31;11.20;99.90
65050;DHT22;52090;51.224;-2.328;2022-12-18T22:02:20;11.20;99.90
65050;DHT22;52090;51.224;-2.328;2022-12-18T22:06:03;11.30;99.90
65050;DHT22;52090;51.224;-2.328;2022-12-18T22:09:50;11.30;99.90
65050;DHT22;52090;51.224;-2.328;2022-12-18T22:13:32;11.30;99.90
65050;DHT22;52090;51.224;-2.328;2022-12-18T22:17:13;11.40;99.90
65050;DHT22;52090;51.224;-2.328;2022-12-18T22:21:03;11.40;99.90
65050;DHT22;52090;51.224;-2.328;2022-12-18T22:24:45;11.40;99.90
65050;DHT22;52090;51.224;-2.328;2022-12-18T22:28:27;11.40;99.90
65050;DHT22;52090;51.224;-2.328;2022-12-18T22:32:28;11.50;99.90
65050;DHT22;52090;51.224;-2.328;2022-12-18T22:36:12;11.50;99.90
65050;DHT22;52090;51.224;-2.328;2022-12-18T22:40:04;11.50;99.90
65050;DHT22;52090;51.224;-2.328;2022-12-18T22:43:47;11.50;99.90
65050;DHT22;52090;51.224;-2.328;2022-12-18T22:47:29;11.50;99.90
65050;DHT22;52090;51.224;-2.328;2022-12-18T22:51:16;11.60;99.90
65050;DHT22;52090;51.224;-2.328;2022-12-18T22:54:58;11.50;99.90
65050;DHT22;52090;51.224;-2.328;2022-12-18T22:58:45;11.60;99.90
65050;DHT22;52090;51.224;-2.328;2022-12-18T23:02:27;11.60;99.90
65050;DHT22;52090;51.224;-2.328;2022-12-18T23:06:10;11.60;99.90
65050;DHT22;52090;51.224;-2.328;2022-12-18T23:09:53;11.60;99.90
65050;DHT22;52090;51.224;-2.328;2022-12-18T23:13:42;11.70;99.90
65050;DHT22;52090;51.224;-2.328;2022-12-18T23:17:25;11.70;99.90
65050;DHT22;52090;51.224;-2.328;2022-12-18T23:21:10;11.70;99.90
65050;DHT22;52090;51.224;-2.328;2022-12-18T23:24:53;11.70;99.90
65050;DHT22;52090;51.224;-2.328;2022-12-18T23:28:36;11.70;99.90
65050;DHT22;52090;51.224;-2.328;2022-12-18T23:32:17;11.80;99.90
65050;DHT22;52090;51.224;-2.328;2022-12-18T23:36:00;11.80;99.90
65050;DHT22;52090;51.224;-2.328;2022-12-18T23:39:43;11.80;99.90
65050;DHT22;52090;51.224;-2.328;2022-12-18T23:43:25;11.80;99.90
65050;DHT22;52090;51.224;-2.328;2022-12-18T23:47:07;11.80;99.90
65050;DHT22;52090;51.224;-2.328;2022-12-18T23:50:48;11.80;99.90
65050;DHT22;52090;51.224;-2.328;2022-12-18T23:54:30;11.80;99.90
65050;DHT22;52090;51.224;-2.328;2022-12-18T23:58:19;11.90;99.90
